createdAt,value
2023-01-31T00:01:22.891Z,91.52
2023-01-31T00:04:00.317Z,91.55
2023-01-31T00:06:35.623Z,91.47
2023-01-31T00:09:03.425Z,91.98
2023-01-31T00:11:30.958Z,91.71
2023-01-31T00:13:59.714Z,91.73
2023-01-31T00:16:26.845Z,91.86
2023-01-31T00:18:53.644Z,91.96
2023-01-31T00:21:23.725Z,91.96
2023-01-31T00:23:51.725Z,92.13
2023-01-31T00:26:39.142Z,92.16
2023-01-31T00:29:06.545Z,92.29
2023-01-31T00:31:34.965Z,92.46
2023-01-31T00:34:01.915Z,92.47
2023-01-31T00:36:31.542Z,92.57
2023-01-31T00:39:00.654Z,92.44
2023-01-31T00:41:29.152Z,92.50
2023-01-31T00:43:56.011Z,92.75
2023-01-31T00:46:23.641Z,92.80
2023-01-31T00:48:50.337Z,92.94
2023-01-31T00:51:17.449Z,92.90
2023-01-31T00:53:43.941Z,92.94
2023-01-31T00:56:13.838Z,93.17
2023-01-31T00:58:40.631Z,93.38
2023-01-31T01:01:16.957Z,93.15
2023-01-31T01:03:44.594Z,93.25
2023-01-31T01:06:11.851Z,93.10
2023-01-31T01:08:39.922Z,93.18
2023-01-31T01:11:11.911Z,93.22
2023-01-31T01:13:39.064Z,93.15
2023-01-31T01:16:07.876Z,93.25
2023-01-31T01:18:36.180Z,93.25
2023-01-31T01:21:30.091Z,93.38
2023-01-31T01:23:58.807Z,93.50
2023-01-31T01:26:31.075Z,93.54
2023-01-31T01:28:59.175Z,93.56
2023-01-31T01:31:30.409Z,93.75
2023-01-31T01:33:59.991Z,93.74
2023-01-31T01:36:26.915Z,93.64
2023-01-31T01:38:53.732Z,93.89
2023-01-31T01:41:21.552Z,94.05
2023-01-31T01:43:53.703Z,94.05
2023-01-31T01:46:30.486Z,94.39
2023-01-31T01:49:13.542Z,94.48
2023-01-31T01:51:43.671Z,94.39
2023-01-31T01:54:15.746Z,94.48
2023-01-31T01:56:45.481Z,94.62
2023-01-31T01:59:21.848Z,94.70
2023-01-31T02:01:50.375Z,94.64
2023-01-31T02:04:25.921Z,94.86
2023-01-31T02:06:52.987Z,94.64
2023-01-31T02:09:35.951Z,94.74
2023-01-31T02:12:02.503Z,95.02
2023-01-31T02:14:29.544Z,94.96
2023-01-31T02:16:55.991Z,94.92
2023-01-31T02:19:40.938Z,95.02
2023-01-31T02:22:18.524Z,95.02
2023-01-31T02:25:22.385Z,95.07
2023-01-31T02:27:56.574Z,95.09
2023-01-31T02:30:39.473Z,95.02
2023-01-31T02:33:18.174Z,95.26
2023-01-31T02:36:15.582Z,95.13
2023-01-31T02:38:58.912Z,95.27
2023-01-31T02:41:51.828Z,95.20
2023-01-31T02:44:54.699Z,95.43
2023-01-31T02:48:03.070Z,95.45
2023-01-31T02:50:38.410Z,95.39
2023-01-31T02:53:37.309Z,95.47
2023-01-31T02:56:18.208Z,95.43
2023-01-31T02:58:49.847Z,95.47
2023-01-31T03:01:21.088Z,95.50
2023-01-31T03:03:47.986Z,95.50
2023-01-31T03:06:23.409Z,95.55
2023-01-31T03:09:02.654Z,95.44
2023-01-31T03:11:58.363Z,95.52
2023-01-31T03:14:40.572Z,95.70
2023-01-31T03:17:34.337Z,95.59
2023-01-31T03:20:13.069Z,95.65
2023-01-31T03:22:48.628Z,95.78
2023-01-31T03:25:20.069Z,95.78
2023-01-31T03:27:52.784Z,95.61
2023-01-31T03:30:26.364Z,95.91
2023-01-31T03:32:59.501Z,96.02
2023-01-31T03:35:29.741Z,95.97
2023-01-31T03:38:11.267Z,95.84
2023-01-31T03:40:43.356Z,96.06
2023-01-31T03:43:25.100Z,96.10
2023-01-31T03:45:59.044Z,96.14
2023-01-31T03:48:33.204Z,96.30
2023-01-31T03:51:03.733Z,96.41
2023-01-31T03:53:39.828Z,96.35
2023-01-31T03:56:45.496Z,96.46
2023-01-31T03:59:20.712Z,96.40
2023-01-31T04:01:50.464Z,96.19
2023-01-31T04:04:23.516Z,96.39
2023-01-31T04:06:50.267Z,96.40
2023-01-31T04:09:17.067Z,96.61
2023-01-31T04:11:48.629Z,96.41
2023-01-31T04:14:16.139Z,96.36
2023-01-31T04:16:42.730Z,96.41
2023-01-31T04:19:09.187Z,96.34
2023-01-31T04:21:35.598Z,96.40
2023-01-31T04:24:02.249Z,96.45
2023-01-31T04:26:28.696Z,96.30
2023-01-31T04:28:55.182Z,96.48
2023-01-31T04:31:21.703Z,96.55
2023-01-31T04:33:48.233Z,96.46
2023-01-31T04:36:14.682Z,96.52
2023-01-31T04:38:41.079Z,96.77
2023-01-31T04:41:07.649Z,96.69
2023-01-31T04:43:34.518Z,96.72
2023-01-31T04:46:01.007Z,96.70
2023-01-31T04:48:29.021Z,96.87
2023-01-31T04:50:56.298Z,96.84
2023-01-31T04:53:22.720Z,96.85
2023-01-31T04:55:49.122Z,96.64
2023-01-31T04:58:15.577Z,96.79
2023-01-31T05:00:41.973Z,96.94
2023-01-31T05:03:08.519Z,96.90
2023-01-31T05:05:36.468Z,96.94
2023-01-31T05:08:03.697Z,96.79
2023-01-31T05:10:30.118Z,96.98
2023-01-31T05:12:56.555Z,96.91
2023-01-31T05:15:23.225Z,97.01
2023-01-31T05:17:53.635Z,96.91
2023-01-31T05:20:20.261Z,97.00
2023-01-31T05:22:49.764Z,97.07
2023-01-31T05:25:16.546Z,96.89
2023-01-31T05:27:44.848Z,97.07
2023-01-31T05:30:12.273Z,97.09
2023-01-31T05:32:39.879Z,97.04
2023-01-31T05:35:06.763Z,96.96
2023-01-31T05:37:33.349Z,97.23
2023-01-31T05:39:59.720Z,96.96
2023-01-31T05:42:26.152Z,96.95
2023-01-31T05:44:52.639Z,97.02
2023-01-31T05:47:19.070Z,97.24
2023-01-31T05:49:45.471Z,97.05
2023-01-31T05:52:11.978Z,96.94
2023-01-31T05:54:38.363Z,96.93
2023-01-31T05:57:04.792Z,96.94
2023-01-31T05:59:33.525Z,96.94
2023-01-31T06:02:00.088Z,96.98
2023-01-31T06:04:26.654Z,96.75
2023-01-31T06:06:53.145Z,96.97
2023-01-31T06:09:19.551Z,96.78
2023-01-31T06:11:46.048Z,96.92
2023-01-31T06:14:12.579Z,96.82
2023-01-31T06:16:39.091Z,96.95
2023-01-31T06:19:05.737Z,96.67
2023-01-31T06:21:32.411Z,96.75
2023-01-31T06:23:58.803Z,96.86
2023-01-31T06:26:25.324Z,96.91
2023-01-31T06:28:51.827Z,96.86
2023-01-31T06:31:19.072Z,96.87
2023-01-31T06:33:47.676Z,96.71
2023-01-31T06:36:18.443Z,96.67
2023-01-31T06:38:49.228Z,96.69
2023-01-31T06:41:16.324Z,96.66
2023-01-31T06:43:42.742Z,96.55
2023-01-31T06:46:09.322Z,96.41
2023-01-31T06:48:35.826Z,96.45
2023-01-31T06:51:02.803Z,96.35
2023-01-31T06:53:29.190Z,96.45
2023-01-31T06:55:56.219Z,96.18
2023-01-31T06:58:22.806Z,96.16
2023-01-31T07:00:49.545Z,96.08
2023-01-31T07:03:16.103Z,95.97
2023-01-31T07:05:42.761Z,96.00
2023-01-31T07:08:09.247Z,95.98
2023-01-31T07:10:35.639Z,95.80
2023-01-31T07:13:02.193Z,95.58
2023-01-31T07:15:28.731Z,95.69
2023-01-31T07:17:59.527Z,95.84
2023-01-31T07:20:26.581Z,95.76
2023-01-31T07:22:57.721Z,95.60
2023-01-31T07:25:25.014Z,95.63
2023-01-31T07:27:51.639Z,95.38
2023-01-31T07:30:18.835Z,95.32
2023-01-31T07:32:45.875Z,95.28
2023-01-31T07:35:12.386Z,95.19
2023-01-31T07:37:39.534Z,95.53
2023-01-31T07:40:07.017Z,95.05
2023-01-31T07:42:33.528Z,95.16
2023-01-31T07:45:06.977Z,95.13
2023-01-31T07:47:43.435Z,95.03
2023-01-31T07:50:10.711Z,95.05
2023-01-31T07:52:37.179Z,94.96
2023-01-31T07:55:03.755Z,94.83
2023-01-31T07:57:32.170Z,94.70
2023-01-31T07:59:58.689Z,94.97
2023-01-31T08:02:43.798Z,95.30
2023-01-31T08:05:11.434Z,94.75
2023-01-31T08:07:38.148Z,94.67
2023-01-31T08:10:04.999Z,95.12
2023-01-31T08:12:31.814Z,94.91
2023-01-31T08:14:58.371Z,94.98
2023-01-31T08:17:24.885Z,94.86
2023-01-31T08:19:51.302Z,94.83
2023-01-31T08:22:17.783Z,94.73
2023-01-31T08:24:44.464Z,95.05
2023-01-31T08:27:11.183Z,94.99
2023-01-31T08:29:37.576Z,94.98
2023-01-31T08:32:04.144Z,94.92
2023-01-31T08:34:30.662Z,94.75
2023-01-31T08:36:57.246Z,94.66
2023-01-31T08:39:23.829Z,94.75
2023-01-31T08:41:50.368Z,94.44
2023-01-31T08:44:16.803Z,94.63
2023-01-31T08:46:45.522Z,94.59
2023-01-31T08:49:12.009Z,94.56
2023-01-31T08:51:38.507Z,94.34
2023-01-31T08:54:05.187Z,94.54
2023-01-31T08:56:31.791Z,93.99
2023-01-31T08:58:58.425Z,93.99
2023-01-31T09:01:24.915Z,93.68
2023-01-31T09:03:56.657Z,93.90
2023-01-31T09:06:27.364Z,93.67
2023-01-31T09:08:56.453Z,93.26
2023-01-31T09:11:23.086Z,93.88
2023-01-31T09:13:51.594Z,93.49
2023-01-31T09:16:18.870Z,93.56
2023-01-31T09:18:45.441Z,93.41
2023-01-31T09:21:14.889Z,93.41
2023-01-31T09:23:42.834Z,93.33
2023-01-31T09:26:13.753Z,93.27
2023-01-31T09:28:43.820Z,93.02
2023-01-31T09:31:15.485Z,92.98
2023-01-31T09:33:43.073Z,92.76
2023-01-31T09:36:18.754Z,92.31
2023-01-31T09:38:45.841Z,92.52
2023-01-31T09:41:24.952Z,92.45
2023-01-31T09:44:17.343Z,92.39
2023-01-31T09:46:50.476Z,92.28
2023-01-31T09:49:24.155Z,92.35
2023-01-31T09:51:58.618Z,92.57
2023-01-31T09:54:40.153Z,92.89
2023-01-31T09:57:12.639Z,92.46
2023-01-31T09:59:52.086Z,92.34
2023-01-31T10:02:27.904Z,92.42
2023-01-31T10:05:13.879Z,92.33
2023-01-31T10:08:00.490Z,92.27
2023-01-31T10:10:37.683Z,92.42
2023-01-31T10:13:14.354Z,92.46
2023-01-31T10:15:48.246Z,92.32
2023-01-31T10:18:23.072Z,92.15
2023-01-31T10:20:58.157Z,92.41
2023-01-31T10:23:41.301Z,92.43
2023-01-31T10:26:19.597Z,92.54
2023-01-31T10:28:48.680Z,92.59
2023-01-31T10:31:44.202Z,92.35
2023-01-31T10:34:26.733Z,92.32
2023-01-31T10:36:59.559Z,92.17
2023-01-31T10:39:42.022Z,92.29
2023-01-31T10:42:25.319Z,92.10
2023-01-31T10:45:10.453Z,92.01
2023-01-31T10:48:01.920Z,92.05
2023-01-31T10:50:49.247Z,91.77
2023-01-31T10:53:34.757Z,91.80
2023-01-31T10:56:10.781Z,91.60
2023-01-31T10:58:38.415Z,91.91
2023-01-31T11:01:12.067Z,91.91
2023-01-31T11:03:38.978Z,92.15
2023-01-31T11:06:06.600Z,92.44
2023-01-31T11:08:42.207Z,92.64
2023-01-31T11:11:16.175Z,92.84
2023-01-31T11:13:56.956Z,93.14
2023-01-31T11:16:24.854Z,93.43
2023-01-31T11:18:53.074Z,93.48
2023-01-31T11:21:26.702Z,93.75
2023-01-31T11:24:01.343Z,93.87
2023-01-31T11:26:38.240Z,94.34
2023-01-31T11:29:20.033Z,94.67
2023-01-31T11:31:47.736Z,94.66
2023-01-31T11:34:33.738Z,94.76
2023-01-31T11:37:06.682Z,95.42
2023-01-31T11:39:37.985Z,95.34
2023-01-31T11:42:15.965Z,95.69
2023-01-31T11:45:02.502Z,95.73
2023-01-31T11:47:43.491Z,95.71
2023-01-31T11:50:31.495Z,96.10
2023-01-31T11:53:00.530Z,96.31
2023-01-31T11:55:34.279Z,96.26
2023-01-31T11:58:02.453Z,96.38
2023-01-31T12:00:32.714Z,96.68
2023-01-31T12:03:15.823Z,96.80
2023-01-31T12:05:48.197Z,96.68
2023-01-31T12:08:40.970Z,96.74
2023-01-31T12:11:16.561Z,96.99
2023-01-31T12:13:51.663Z,96.78
2023-01-31T12:16:24.657Z,96.98
2023-01-31T12:19:06.699Z,96.75
2023-01-31T12:21:36.130Z,96.99
2023-01-31T12:24:08.788Z,97.08
2023-01-31T12:26:42.997Z,97.10
2023-01-31T12:29:46.583Z,97.05
2023-01-31T12:32:43.832Z,97.11
2023-01-31T12:35:47.863Z,97.00
2023-01-31T12:38:45.528Z,96.60
2023-01-31T12:41:27.164Z,96.63
2023-01-31T12:43:56.531Z,96.26
2023-01-31T12:46:45.828Z,96.46
2023-01-31T12:49:49.496Z,96.15
2023-01-31T12:52:30.433Z,95.91
2023-01-31T12:55:01.741Z,95.59
2023-01-31T12:57:47.175Z,94.20
2023-01-31T13:00:33.004Z,93.98
2023-01-31T13:03:29.791Z,93.80
2023-01-31T13:06:15.363Z,93.35
2023-01-31T13:09:07.196Z,92.67
2023-01-31T13:11:44.400Z,92.54
2023-01-31T13:14:16.912Z,91.83
2023-01-31T13:16:46.757Z,92.32
2023-01-31T13:19:23.217Z,92.19
2023-01-31T13:21:54.299Z,91.53
2023-01-31T13:24:29.690Z,91.63
2023-01-31T13:27:32.709Z,91.67
2023-01-31T13:30:23.502Z,91.43
2023-01-31T13:32:52.505Z,91.58
2023-01-31T13:35:31.622Z,91.07
2023-01-31T13:38:02.963Z,91.10
2023-01-31T13:40:38.379Z,90.91
2023-01-31T13:43:13.907Z,90.51
2023-01-31T13:45:52.653Z,90.46
2023-01-31T13:48:37.203Z,89.46
2023-01-31T13:51:19.649Z,88.71
2023-01-31T13:53:49.380Z,88.64
2023-01-31T13:56:25.025Z,88.55
2023-01-31T13:58:52.562Z,88.42
2023-01-31T14:01:22.934Z,88.14
2023-01-31T14:04:11.489Z,87.35
2023-01-31T14:07:15.128Z,87.42
2023-01-31T14:10:06.589Z,87.33
2023-01-31T14:12:35.358Z,87.71
2023-01-31T14:15:02.780Z,87.40
2023-01-31T14:17:29.272Z,86.16
2023-01-31T14:19:55.656Z,85.42
2023-01-31T14:22:36.542Z,84.93
2023-01-31T14:25:10.401Z,84.17
2023-01-31T14:27:44.016Z,84.71
2023-01-31T14:30:19.829Z,84.21
2023-01-31T14:33:01.428Z,84.43
2023-01-31T14:35:51.511Z,83.88
2023-01-31T14:38:45.747Z,83.97
2023-01-31T14:41:47.963Z,83.42
2023-01-31T14:44:37.254Z,83.01
2023-01-31T14:47:31.747Z,83.42
2023-01-31T14:50:13.256Z,82.94
2023-01-31T14:53:11.027Z,82.79
2023-01-31T14:56:09.684Z,82.89
2023-01-31T14:58:36.704Z,82.59
2023-01-31T15:01:07.628Z,82.27
2023-01-31T15:03:38.502Z,81.67
2023-01-31T15:06:28.152Z,82.45
2023-01-31T15:09:21.371Z,82.19
2023-01-31T15:11:49.553Z,81.65
2023-01-31T15:14:35.104Z,82.08
2023-01-31T15:17:33.036Z,81.74
2023-01-31T15:20:19.847Z,81.82
2023-01-31T15:22:47.544Z,81.73
2023-01-31T15:25:34.884Z,82.08
2023-01-31T15:28:03.387Z,82.30
2023-01-31T15:30:34.144Z,82.36
2023-01-31T15:33:08.395Z,82.29
2023-01-31T15:35:59.204Z,82.05
2023-01-31T15:38:34.040Z,82.61
2023-01-31T15:41:20.053Z,82.09
2023-01-31T15:43:47.918Z,81.83
2023-01-31T15:46:20.674Z,81.95
2023-01-31T15:48:47.133Z,81.50
2023-01-31T15:51:14.771Z,81.49
2023-01-31T15:53:41.922Z,81.16
2023-01-31T15:56:25.731Z,81.57
2023-01-31T15:58:55.196Z,81.46
2023-01-31T16:01:21.681Z,81.03
2023-01-31T16:03:56.601Z,80.53
2023-01-31T16:06:31.815Z,80.65
2023-01-31T16:09:01.419Z,81.00
2023-01-31T16:11:33.514Z,81.37
2023-01-31T16:14:03.599Z,81.60
2023-01-31T16:16:31.242Z,81.56
2023-01-31T16:18:59.615Z,81.64
2023-01-31T16:21:53.248Z,81.74
2023-01-31T16:24:21.912Z,82.15
2023-01-31T16:26:59.118Z,81.98
2023-01-31T16:29:44.582Z,82.16
2023-01-31T16:32:22.888Z,82.03
2023-01-31T16:35:04.319Z,81.79
2023-01-31T16:37:37.002Z,81.59
2023-01-31T16:40:13.742Z,81.47
2023-01-31T16:42:40.183Z,81.55
2023-01-31T16:45:28.362Z,81.56
2023-01-31T16:47:56.376Z,80.53
2023-01-31T16:50:36.649Z,79.98
2023-01-31T16:53:18.720Z,79.30
2023-01-31T16:55:45.836Z,79.42
2023-01-31T16:58:33.204Z,79.74
2023-01-31T17:01:12.543Z,78.96
2023-01-31T17:03:39.486Z,78.48
2023-01-31T17:06:07.187Z,78.82
2023-01-31T17:08:40.281Z,78.96
2023-01-31T17:11:10.843Z,78.39
2023-01-31T17:13:38.723Z,78.27
2023-01-31T17:16:24.408Z,77.85
2023-01-31T17:18:54.992Z,77.62
2023-01-31T17:21:22.792Z,78.00
2023-01-31T17:23:49.856Z,77.57
2023-01-31T17:26:19.728Z,77.46
2023-01-31T17:28:59.889Z,77.40
2023-01-31T17:31:29.609Z,76.84
2023-01-31T17:33:56.664Z,77.27
2023-01-31T17:36:23.406Z,77.00
2023-01-31T17:38:51.279Z,76.63
2023-01-31T17:41:19.819Z,76.92
2023-01-31T17:43:46.357Z,76.47
2023-01-31T17:46:15.124Z,76.97
2023-01-31T17:48:42.064Z,77.07
2023-01-31T17:51:08.919Z,77.51
2023-01-31T17:53:44.127Z,77.64
2023-01-31T17:56:15.823Z,77.82
2023-01-31T17:58:42.246Z,77.86
2023-01-31T18:01:10.689Z,77.50
2023-01-31T18:03:37.341Z,77.80
2023-01-31T18:06:06.541Z,78.01
2023-01-31T18:08:34.217Z,78.08
2023-01-31T18:11:14.038Z,78.05
2023-01-31T18:13:41.227Z,78.47
2023-01-31T18:16:12.775Z,78.18
2023-01-31T18:18:46.124Z,78.27
2023-01-31T18:21:18.602Z,78.50
2023-01-31T18:23:56.176Z,77.94
2023-01-31T18:26:23.943Z,77.97
2023-01-31T18:28:51.339Z,78.58
2023-01-31T18:31:18.517Z,78.41
2023-01-31T18:33:46.885Z,78.07
2023-01-31T18:36:16.530Z,78.34
2023-01-31T18:38:44.993Z,78.53
2023-01-31T18:41:14.541Z,78.73
2023-01-31T18:43:42.618Z,78.84
2023-01-31T18:46:10.308Z,78.80
2023-01-31T18:48:38.832Z,78.58
2023-01-31T18:51:08.448Z,78.38
2023-01-31T18:53:36.981Z,78.54
2023-01-31T18:56:05.940Z,78.55
2023-01-31T18:58:37.295Z,78.59
2023-01-31T19:01:12.911Z,78.93
2023-01-31T19:03:40.601Z,78.93
2023-01-31T19:06:16.059Z,78.85
2023-01-31T19:08:43.020Z,78.68
2023-01-31T19:11:12.779Z,79.07
2023-01-31T19:13:40.265Z,79.31
2023-01-31T19:16:10.058Z,79.66
2023-01-31T19:18:36.903Z,80.02
2023-01-31T19:21:15.847Z,80.11
2023-01-31T19:23:42.411Z,80.17
2023-01-31T19:26:09.757Z,80.18
2023-01-31T19:28:37.277Z,80.17
2023-01-31T19:31:06.452Z,79.98
2023-01-31T19:33:34.317Z,80.26
2023-01-31T19:36:11.557Z,80.09
2023-01-31T19:38:38.423Z,80.50
2023-01-31T19:41:07.317Z,80.38
2023-01-31T19:43:34.014Z,80.49
2023-01-31T19:46:01.527Z,80.42
2023-01-31T19:48:30.989Z,80.13
2023-01-31T19:50:58.322Z,79.89
2023-01-31T19:53:25.330Z,79.49
2023-01-31T19:55:54.042Z,79.30
2023-01-31T19:58:21.410Z,79.50
2023-01-31T20:00:48.687Z,79.61
2023-01-31T20:03:15.188Z,79.21
2023-01-31T20:05:41.686Z,79.38
2023-01-31T20:08:08.114Z,79.60
2023-01-31T20:10:35.792Z,79.36
2023-01-31T20:13:02.625Z,79.08
2023-01-31T20:15:30.100Z,79.11
2023-01-31T20:17:57.346Z,79.13
2023-01-31T20:20:24.075Z,78.86
2023-01-31T20:22:50.485Z,78.55
2023-01-31T20:25:16.902Z,78.05
2023-01-31T20:27:43.398Z,78.24
2023-01-31T20:30:10.626Z,77.64
2023-01-31T20:32:37.144Z,77.80
2023-01-31T20:35:04.077Z,77.51
2023-01-31T20:37:30.500Z,77.44
2023-01-31T20:39:56.865Z,77.27
2023-01-31T20:42:25.665Z,77.05
2023-01-31T20:44:52.138Z,77.28
2023-01-31T20:47:18.505Z,76.92
2023-01-31T20:49:44.833Z,76.24
2023-01-31T20:52:11.249Z,75.91
2023-01-31T20:54:37.622Z,76.02
2023-01-31T20:57:04.048Z,75.29
2023-01-31T20:59:30.463Z,75.22
2023-01-31T21:01:56.862Z,74.86
2023-01-31T21:04:23.218Z,75.13
2023-01-31T21:06:49.710Z,75.31
2023-01-31T21:09:16.107Z,75.47
2023-01-31T21:11:42.687Z,75.78
2023-01-31T21:14:09.116Z,76.11
2023-01-31T21:16:35.787Z,76.01
2023-01-31T21:19:02.184Z,75.90
2023-01-31T21:21:28.720Z,75.86
2023-01-31T21:23:59.622Z,76.08
2023-01-31T21:26:27.066Z,75.97
2023-01-31T21:28:54.075Z,76.55
2023-01-31T21:31:21.253Z,76.61
2023-01-31T21:33:50.423Z,76.79
2023-01-31T21:36:19.728Z,77.14
2023-01-31T21:38:46.516Z,77.20
2023-01-31T21:41:32.266Z,77.68
2023-01-31T21:43:59.349Z,78.07
2023-01-31T21:46:26.327Z,78.30
2023-01-31T21:48:53.582Z,78.22
2023-01-31T21:51:22.404Z,78.61
2023-01-31T21:53:48.901Z,78.74
2023-01-31T21:56:20.450Z,79.23
2023-01-31T21:58:47.250Z,79.46
2023-01-31T22:01:17.742Z,79.75
2023-01-31T22:03:48.150Z,80.07
2023-01-31T22:06:16.961Z,80.53
2023-01-31T22:08:43.929Z,80.40
2023-01-31T22:11:14.744Z,80.97
2023-01-31T22:13:46.367Z,81.30
2023-01-31T22:16:14.261Z,81.65
2023-01-31T22:18:42.580Z,82.04
2023-01-31T22:21:17.738Z,82.23
2023-01-31T22:23:49.391Z,82.45
2023-01-31T22:26:18.912Z,82.89
2023-01-31T22:28:45.741Z,83.11
2023-01-31T22:31:12.877Z,83.33
2023-01-31T22:33:40.745Z,83.44
2023-01-31T22:36:10.490Z,83.75
2023-01-31T22:38:37.768Z,83.75
2023-01-31T22:41:07.851Z,83.95
2023-01-31T22:43:42.234Z,84.51
2023-01-31T22:46:11.894Z,84.29
2023-01-31T22:48:38.688Z,84.45
2023-01-31T22:51:07.820Z,84.55
2023-01-31T22:53:36.968Z,84.75
2023-01-31T22:56:06.797Z,84.77
2023-01-31T22:58:33.899Z,84.62
2023-01-31T23:01:00.407Z,84.78
2023-01-31T23:03:27.887Z,84.65
2023-01-31T23:05:54.332Z,84.49
2023-01-31T23:08:20.952Z,84.44
2023-01-31T23:10:47.451Z,84.27
2023-01-31T23:13:13.970Z,84.47
2023-01-31T23:15:40.549Z,84.40
2023-01-31T23:18:07.194Z,84.42
2023-01-31T23:20:34.074Z,84.69
2023-01-31T23:23:00.845Z,84.72
2023-01-31T23:25:29.760Z,84.77
2023-01-31T23:27:57.415Z,84.87
2023-01-31T23:30:24.305Z,84.80
2023-01-31T23:32:51.778Z,84.86
2023-01-31T23:35:18.364Z,84.88
2023-01-31T23:37:44.951Z,84.78
2023-01-31T23:40:13.771Z,84.81
2023-01-31T23:42:40.246Z,84.39
2023-01-31T23:45:07.421Z,84.39
2023-01-31T23:47:33.875Z,84.13
2023-01-31T23:50:00.288Z,83.62
2023-01-31T23:52:26.791Z,83.37
2023-01-31T23:54:53.314Z,83.30
2023-01-31T23:57:19.795Z,83.13
2023-01-31T23:59:46.964Z,82.96
